sensor_id;sensor_type;location;lat;lon;timestamp;P1;durP1;ratioP1;P2;durP2;ratioP2
65971;SDS011;52726;48.852;9.152;2023-04-15T00:00:40;3.28;;;2.38;;
65971;SDS011;52726;48.852;9.152;2023-04-15T00:03:05;4.40;;;2.65;;
65971;SDS011;52726;48.852;9.152;2023-04-15T00:05:32;4.85;;;2.50;;
65971;SDS011;52726;48.852;9.152;2023-04-15T00:07:57;3.78;;;2.15;;
65971;SDS011;52726;48.852;9.152;2023-04-15T00:10:23;5.22;;;2.42;;
65971;SDS011;52726;48.852;9.152;2023-04-15T00:12:49;2.70;;;2.15;;
65971;SDS011;52726;48.852;9.152;2023-04-15T00:15:15;4.82;;;2.05;;
65971;SDS011;52726;48.852;9.152;2023-04-15T00:17:40;3.20;;;2.42;;
65971;SDS011;52726;48.852;9.152;2023-04-15T00:20:06;7.05;;;1.80;;
65971;SDS011;52726;48.852;9.152;2023-04-15T00:22:31;3.40;;;2.35;;
65971;SDS011;52726;48.852;9.152;2023-04-15T00:24:57;5.85;;;1.90;;
65971;SDS011;52726;48.852;9.152;2023-04-15T00:27:22;4.57;;;2.47;;
65971;SDS011;52726;48.852;9.152;2023-04-15T00:29:47;4.30;;;2.60;;
65971;SDS011;52726;48.852;9.152;2023-04-15T00:32:13;4.43;;;2.42;;
65971;SDS011;52726;48.852;9.152;2023-04-15T00:34:38;3.55;;;2.15;;
65971;SDS011;52726;48.852;9.152;2023-04-15T00:37:03;5.30;;;2.42;;
65971;SDS011;52726;48.852;9.152;2023-04-15T00:39:29;6.88;;;2.38;;
65971;SDS011;52726;48.852;9.152;2023-04-15T00:41:54;2.10;;;1.90;;
65971;SDS011;52726;48.852;9.152;2023-04-15T00:44:21;4.50;;;2.20;;
65971;SDS011;52726;48.852;9.152;2023-04-15T00:46:47;5.68;;;2.35;;
65971;SDS011;52726;48.852;9.152;2023-04-15T00:49:14;5.55;;;2.45;;
65971;SDS011;52726;48.852;9.152;2023-04-15T00:51:40;6.38;;;3.28;;
65971;SDS011;52726;48.852;9.152;2023-04-15T00:54:05;6.72;;;3.40;;
65971;SDS011;52726;48.852;9.152;2023-04-15T01:03:04;2.00;;;1.50;;
65971;SDS011;52726;48.852;9.152;2023-04-15T01:08:12;6.05;;;2.20;;
65971;SDS011;52726;48.852;9.152;2023-04-15T01:10:38;4.53;;;2.55;;
65971;SDS011;52726;48.852;9.152;2023-04-15T01:13:04;5.25;;;2.25;;
65971;SDS011;52726;48.852;9.152;2023-04-15T01:15:29;2.53;;;2.28;;
65971;SDS011;52726;48.852;9.152;2023-04-15T01:17:56;3.53;;;2.33;;
65971;SDS011;52726;48.852;9.152;2023-04-15T01:20:22;2.95;;;1.88;;
65971;SDS011;52726;48.852;9.152;2023-04-15T01:22:48;6.22;;;2.85;;
65971;SDS011;52726;48.852;9.152;2023-04-15T01:25:16;2.92;;;2.10;;
65971;SDS011;52726;48.852;9.152;2023-04-15T01:27:43;5.15;;;2.40;;
65971;SDS011;52726;48.852;9.152;2023-04-15T01:30:08;4.95;;;2.83;;
65971;SDS011;52726;48.852;9.152;2023-04-15T01:32:34;4.25;;;2.40;;
65971;SDS011;52726;48.852;9.152;2023-04-15T01:35:00;7.80;;;1.73;;
65971;SDS011;52726;48.852;9.152;2023-04-15T01:37:25;3.15;;;1.55;;
65971;SDS011;52726;48.852;9.152;2023-04-15T01:39:51;4.85;;;1.90;;
65971;SDS011;52726;48.852;9.152;2023-04-15T01:42:16;8.13;;;2.15;;
65971;SDS011;52726;48.852;9.152;2023-04-15T01:44:42;3.63;;;2.38;;
65971;SDS011;52726;48.852;9.152;2023-04-15T01:47:07;4.03;;;2.53;;
65971;SDS011;52726;48.852;9.152;2023-04-15T01:49:32;4.53;;;2.42;;
65971;SDS011;52726;48.852;9.152;2023-04-15T01:51:58;4.85;;;2.42;;
65971;SDS011;52726;48.852;9.152;2023-04-15T01:54:24;4.82;;;2.10;;
65971;SDS011;52726;48.852;9.152;2023-04-15T01:56:51;4.55;;;2.30;;
65971;SDS011;52726;48.852;9.152;2023-04-15T01:59:16;2.75;;;2.30;;
65971;SDS011;52726;48.852;9.152;2023-04-15T02:01:42;3.80;;;2.45;;
65971;SDS011;52726;48.852;9.152;2023-04-15T02:04:09;5.50;;;2.40;;
65971;SDS011;52726;48.852;9.152;2023-04-15T02:06:40;3.63;;;1.92;;
65971;SDS011;52726;48.852;9.152;2023-04-15T02:09:06;9.32;;;2.22;;
65971;SDS011;52726;48.852;9.152;2023-04-15T02:11:32;3.80;;;2.00;;
65971;SDS011;52726;48.852;9.152;2023-04-15T02:13:59;3.80;;;1.88;;
65971;SDS011;52726;48.852;9.152;2023-04-15T02:16:24;5.63;;;2.80;;
65971;SDS011;52726;48.852;9.152;2023-04-15T02:18:50;3.45;;;2.28;;
65971;SDS011;52726;48.852;9.152;2023-04-15T02:21:16;3.90;;;2.10;;
65971;SDS011;52726;48.852;9.152;2023-04-15T02:23:42;5.18;;;2.30;;
65971;SDS011;52726;48.852;9.152;2023-04-15T02:26:08;3.72;;;2.95;;
65971;SDS011;52726;48.852;9.152;2023-04-15T02:28:33;7.70;;;3.05;;
65971;SDS011;52726;48.852;9.152;2023-04-15T02:30:59;5.38;;;2.40;;
65971;SDS011;52726;48.852;9.152;2023-04-15T02:33:25;15.68;;;3.83;;
65971;SDS011;52726;48.852;9.152;2023-04-15T02:35:51;4.63;;;2.38;;
65971;SDS011;52726;48.852;9.152;2023-04-15T02:38:17;5.45;;;3.30;;
65971;SDS011;52726;48.852;9.152;2023-04-15T02:40:42;4.00;;;2.70;;
65971;SDS011;52726;48.852;9.152;2023-04-15T02:43:08;5.63;;;2.78;;
65971;SDS011;52726;48.852;9.152;2023-04-15T02:45:33;3.97;;;2.33;;
65971;SDS011;52726;48.852;9.152;2023-04-15T02:47:58;3.95;;;2.47;;
65971;SDS011;52726;48.852;9.152;2023-04-15T02:50:27;4.63;;;2.55;;
65971;SDS011;52726;48.852;9.152;2023-04-15T02:52:53;5.25;;;2.58;;
65971;SDS011;52726;48.852;9.152;2023-04-15T02:55:18;6.40;;;3.40;;
65971;SDS011;52726;48.852;9.152;2023-04-15T02:57:43;2.40;;;2.20;;
65971;SDS011;52726;48.852;9.152;2023-04-15T03:00:09;9.32;;;3.08;;
65971;SDS011;52726;48.852;9.152;2023-04-15T03:02:36;9.65;;;2.67;;
65971;SDS011;52726;48.852;9.152;2023-04-15T03:05:02;3.33;;;2.20;;
65971;SDS011;52726;48.852;9.152;2023-04-15T03:07:29;7.70;;;2.28;;
65971;SDS011;52726;48.852;9.152;2023-04-15T03:09:54;2.85;;;2.50;;
65971;SDS011;52726;48.852;9.152;2023-04-15T03:12:20;2.17;;;1.98;;
65971;SDS011;52726;48.852;9.152;2023-04-15T03:14:45;6.82;;;2.60;;
65971;SDS011;52726;48.852;9.152;2023-04-15T03:17:10;3.25;;;2.28;;
65971;SDS011;52726;48.852;9.152;2023-04-15T03:19:36;4.28;;;2.20;;
65971;SDS011;52726;48.852;9.152;2023-04-15T03:22:01;3.78;;;2.35;;
65971;SDS011;52726;48.852;9.152;2023-04-15T03:24:26;4.80;;;3.13;;
65971;SDS011;52726;48.852;9.152;2023-04-15T03:26:53;2.97;;;2.42;;
65971;SDS011;52726;48.852;9.152;2023-04-15T03:29:19;3.78;;;2.80;;
65971;SDS011;52726;48.852;9.152;2023-04-15T03:31:44;4.20;;;2.83;;
65971;SDS011;52726;48.852;9.152;2023-04-15T03:34:10;5.10;;;2.53;;
65971;SDS011;52726;48.852;9.152;2023-04-15T03:36:35;4.47;;;2.90;;
65971;SDS011;52726;48.852;9.152;2023-04-15T03:39:01;4.88;;;2.30;;
65971;SDS011;52726;48.852;9.152;2023-04-15T03:41:28;10.73;;;2.42;;
65971;SDS011;52726;48.852;9.152;2023-04-15T03:43:53;4.95;;;2.33;;
65971;SDS011;52726;48.852;9.152;2023-04-15T03:46:18;5.63;;;2.83;;
65971;SDS011;52726;48.852;9.152;2023-04-15T03:48:44;3.42;;;2.55;;
65971;SDS011;52726;48.852;9.152;2023-04-15T03:51:09;4.55;;;2.30;;
65971;SDS011;52726;48.852;9.152;2023-04-15T03:53:35;4.32;;;2.22;;
65971;SDS011;52726;48.852;9.152;2023-04-15T03:56:01;3.05;;;2.15;;
65971;SDS011;52726;48.852;9.152;2023-04-15T03:58:26;3.05;;;2.40;;
65971;SDS011;52726;48.852;9.152;2023-04-15T04:00:51;12.43;;;2.83;;
65971;SDS011;52726;48.852;9.152;2023-04-15T04:03:17;4.88;;;2.60;;
65971;SDS011;52726;48.852;9.152;2023-04-15T04:05:42;6.63;;;2.63;;
65971;SDS011;52726;48.852;9.152;2023-04-15T04:08:08;6.70;;;2.47;;
65971;SDS011;52726;48.852;9.152;2023-04-15T04:10:34;2.20;;;2.00;;
65971;SDS011;52726;48.852;9.152;2023-04-15T04:12:59;7.82;;;2.72;;
65971;SDS011;52726;48.852;9.152;2023-04-15T04:15:25;2.28;;;2.05;;
65971;SDS011;52726;48.852;9.152;2023-04-15T04:17:51;4.07;;;2.70;;
65971;SDS011;52726;48.852;9.152;2023-04-15T04:20:16;4.53;;;2.08;;
65971;SDS011;52726;48.852;9.152;2023-04-15T04:22:41;8.00;;;2.40;;
65971;SDS011;52726;48.852;9.152;2023-04-15T04:25:07;3.50;;;2.67;;
65971;SDS011;52726;48.852;9.152;2023-04-15T04:27:34;6.25;;;3.10;;
65971;SDS011;52726;48.852;9.152;2023-04-15T04:29:59;5.53;;;2.50;;
65971;SDS011;52726;48.852;9.152;2023-04-15T04:32:25;6.50;;;2.53;;
65971;SDS011;52726;48.852;9.152;2023-04-15T04:34:51;2.60;;;1.88;;
65971;SDS011;52726;48.852;9.152;2023-04-15T04:37:16;4.50;;;2.85;;
65971;SDS011;52726;48.852;9.152;2023-04-15T04:39:41;4.55;;;2.60;;
65971;SDS011;52726;48.852;9.152;2023-04-15T04:42:08;2.33;;;1.95;;
65971;SDS011;52726;48.852;9.152;2023-04-15T04:44:33;4.72;;;2.20;;
65971;SDS011;52726;48.852;9.152;2023-04-15T04:46:58;3.25;;;2.45;;
65971;SDS011;52726;48.852;9.152;2023-04-15T04:49:24;4.75;;;2.42;;
65971;SDS011;52726;48.852;9.152;2023-04-15T04:51:49;3.30;;;1.90;;
65971;SDS011;52726;48.852;9.152;2023-04-15T04:54:15;2.60;;;2.00;;
65971;SDS011;52726;48.852;9.152;2023-04-15T04:56:41;7.22;;;2.55;;
65971;SDS011;52726;48.852;9.152;2023-04-15T04:59:06;2.75;;;2.40;;
65971;SDS011;52726;48.852;9.152;2023-04-15T05:01:31;2.28;;;2.05;;
65971;SDS011;52726;48.852;9.152;2023-04-15T05:03:57;6.97;;;2.83;;
65971;SDS011;52726;48.852;9.152;2023-04-15T05:06:23;4.03;;;2.78;;
65971;SDS011;52726;48.852;9.152;2023-04-15T05:08:48;5.32;;;2.47;;
65971;SDS011;52726;48.852;9.152;2023-04-15T05:11:14;10.70;;;3.13;;
65971;SDS011;52726;48.852;9.152;2023-04-15T05:13:39;5.03;;;2.50;;
65971;SDS011;52726;48.852;9.152;2023-04-15T05:16:04;2.50;;;2.20;;
65971;SDS011;52726;48.852;9.152;2023-04-15T05:18:30;5.75;;;2.60;;
65971;SDS011;52726;48.852;9.152;2023-04-15T05:20:56;5.72;;;2.53;;
65971;SDS011;52726;48.852;9.152;2023-04-15T05:23:21;4.45;;;2.72;;
65971;SDS011;52726;48.852;9.152;2023-04-15T05:25:47;5.95;;;3.05;;
65971;SDS011;52726;48.852;9.152;2023-04-15T05:28:12;3.50;;;2.65;;
65971;SDS011;52726;48.852;9.152;2023-04-15T05:30:37;5.13;;;3.22;;
65971;SDS011;52726;48.852;9.152;2023-04-15T05:33:03;5.20;;;3.10;;
65971;SDS011;52726;48.852;9.152;2023-04-15T05:35:29;6.63;;;3.28;;
65971;SDS011;52726;48.852;9.152;2023-04-15T05:37:54;7.05;;;3.40;;
65971;SDS011;52726;48.852;9.152;2023-04-15T05:40:19;8.05;;;3.80;;
65971;SDS011;52726;48.852;9.152;2023-04-15T05:42:45;8.88;;;3.45;;
65971;SDS011;52726;48.852;9.152;2023-04-15T05:45:10;11.32;;;3.67;;
65971;SDS011;52726;48.852;9.152;2023-04-15T05:47:36;7.15;;;3.47;;
65971;SDS011;52726;48.852;9.152;2023-04-15T05:50:02;5.85;;;2.97;;
65971;SDS011;52726;48.852;9.152;2023-04-15T05:52:28;6.63;;;3.75;;
65971;SDS011;52726;48.852;9.152;2023-04-15T05:54:53;6.63;;;3.47;;
65971;SDS011;52726;48.852;9.152;2023-04-15T05:57:18;5.88;;;3.97;;
65971;SDS011;52726;48.852;9.152;2023-04-15T05:59:44;11.98;;;3.30;;
65971;SDS011;52726;48.852;9.152;2023-04-15T06:02:09;9.27;;;3.90;;
65971;SDS011;52726;48.852;9.152;2023-04-15T06:04:34;4.97;;;3.65;;
65971;SDS011;52726;48.852;9.152;2023-04-15T06:07:00;7.70;;;3.72;;
65971;SDS011;52726;48.852;9.152;2023-04-15T06:09:26;7.50;;;3.78;;
65971;SDS011;52726;48.852;9.152;2023-04-15T06:11:52;7.50;;;4.30;;
65971;SDS011;52726;48.852;9.152;2023-04-15T06:14:18;9.02;;;3.40;;
65971;SDS011;52726;48.852;9.152;2023-04-15T06:16:43;8.85;;;3.78;;
65971;SDS011;52726;48.852;9.152;2023-04-15T06:19:09;10.88;;;3.60;;
65971;SDS011;52726;48.852;9.152;2023-04-15T06:21:34;14.43;;;3.80;;
65971;SDS011;52726;48.852;9.152;2023-04-15T06:24:00;7.47;;;3.00;;
65971;SDS011;52726;48.852;9.152;2023-04-15T06:26:26;9.10;;;3.60;;
65971;SDS011;52726;48.852;9.152;2023-04-15T06:28:52;7.68;;;3.22;;
65971;SDS011;52726;48.852;9.152;2023-04-15T06:31:17;10.57;;;4.10;;
65971;SDS011;52726;48.852;9.152;2023-04-15T06:33:43;8.07;;;3.60;;
65971;SDS011;52726;48.852;9.152;2023-04-15T06:36:08;7.40;;;3.50;;
65971;SDS011;52726;48.852;9.152;2023-04-15T06:38:33;6.15;;;3.17;;
65971;SDS011;52726;48.852;9.152;2023-04-15T06:40:59;5.20;;;2.90;;
65971;SDS011;52726;48.852;9.152;2023-04-15T06:43:24;10.80;;;3.75;;
65971;SDS011;52726;48.852;9.152;2023-04-15T06:45:50;5.38;;;3.38;;
65971;SDS011;52726;48.852;9.152;2023-04-15T06:48:15;5.90;;;3.47;;
65971;SDS011;52726;48.852;9.152;2023-04-15T06:50:41;6.03;;;3.53;;
65971;SDS011;52726;48.852;9.152;2023-04-15T06:53:07;8.05;;;3.78;;
65971;SDS011;52726;48.852;9.152;2023-04-15T06:55:32;5.15;;;3.30;;
65971;SDS011;52726;48.852;9.152;2023-04-15T06:57:58;7.28;;;3.63;;
65971;SDS011;52726;48.852;9.152;2023-04-15T07:00:23;7.22;;;3.20;;
65971;SDS011;52726;48.852;9.152;2023-04-15T07:02:49;5.75;;;3.20;;
65971;SDS011;52726;48.852;9.152;2023-04-15T07:05:15;9.68;;;3.95;;
65971;SDS011;52726;48.852;9.152;2023-04-15T07:07:40;9.38;;;3.30;;
65971;SDS011;52726;48.852;9.152;2023-04-15T07:10:06;6.82;;;3.42;;
65971;SDS011;52726;48.852;9.152;2023-04-15T07:12:32;5.22;;;3.25;;
65971;SDS011;52726;48.852;9.152;2023-04-15T07:14:59;7.50;;;3.75;;
65971;SDS011;52726;48.852;9.152;2023-04-15T07:17:24;9.73;;;3.10;;
65971;SDS011;52726;48.852;9.152;2023-04-15T07:19:49;5.57;;;3.28;;
65971;SDS011;52726;48.852;9.152;2023-04-15T07:22:15;10.13;;;3.83;;
65971;SDS011;52726;48.852;9.152;2023-04-15T07:24:40;9.63;;;3.33;;
65971;SDS011;52726;48.852;9.152;2023-04-15T07:27:06;6.95;;;3.25;;
65971;SDS011;52726;48.852;9.152;2023-04-15T07:32:54;6.90;;;3.25;;
65971;SDS011;52726;48.852;9.152;2023-04-15T07:35:20;6.70;;;3.30;;
65971;SDS011;52726;48.852;9.152;2023-04-15T07:37:47;4.38;;;2.90;;
65971;SDS011;52726;48.852;9.152;2023-04-15T07:40:12;5.57;;;3.28;;
65971;SDS011;52726;48.852;9.152;2023-04-15T07:42:38;5.63;;;3.13;;
65971;SDS011;52726;48.852;9.152;2023-04-15T07:45:05;6.53;;;3.70;;
65971;SDS011;52726;48.852;9.152;2023-04-15T07:47:30;7.57;;;3.45;;
65971;SDS011;52726;48.852;9.152;2023-04-15T07:49:56;5.85;;;3.25;;
65971;SDS011;52726;48.852;9.152;2023-04-15T07:52:21;3.53;;;2.35;;
65971;SDS011;52726;48.852;9.152;2023-04-15T07:54:47;3.80;;;2.40;;
65971;SDS011;52726;48.852;9.152;2023-04-15T07:57:12;5.05;;;2.58;;
65971;SDS011;52726;48.852;9.152;2023-04-15T07:59:37;4.78;;;2.08;;
65971;SDS011;52726;48.852;9.152;2023-04-15T08:02:03;4.82;;;1.58;;
65971;SDS011;52726;48.852;9.152;2023-04-15T08:04:28;2.60;;;1.70;;
65971;SDS011;52726;48.852;9.152;2023-04-15T08:06:53;4.93;;;1.80;;
65971;SDS011;52726;48.852;9.152;2023-04-15T08:09:19;6.25;;;1.75;;
65971;SDS011;52726;48.852;9.152;2023-04-15T08:11:47;4.78;;;1.80;;
65971;SDS011;52726;48.852;9.152;2023-04-15T08:14:13;3.97;;;1.80;;
65971;SDS011;52726;48.852;9.152;2023-04-15T08:16:38;7.43;;;2.58;;
65971;SDS011;52726;48.852;9.152;2023-04-15T08:19:03;5.43;;;2.03;;
65971;SDS011;52726;48.852;9.152;2023-04-15T08:21:29;3.53;;;1.83;;
65971;SDS011;52726;48.852;9.152;2023-04-15T08:23:55;6.63;;;1.60;;
65971;SDS011;52726;48.852;9.152;2023-04-15T08:26:20;8.07;;;1.80;;
65971;SDS011;52726;48.852;9.152;2023-04-15T08:28:46;3.10;;;1.80;;
65971;SDS011;52726;48.852;9.152;2023-04-15T08:31:12;2.70;;;1.65;;
65971;SDS011;52726;48.852;9.152;2023-04-15T08:33:39;5.93;;;2.03;;
65971;SDS011;52726;48.852;9.152;2023-04-15T08:36:04;2.97;;;1.75;;
65971;SDS011;52726;48.852;9.152;2023-04-15T08:38:30;3.95;;;1.88;;
65971;SDS011;52726;48.852;9.152;2023-04-15T08:40:55;3.60;;;1.80;;
65971;SDS011;52726;48.852;9.152;2023-04-15T08:43:26;2.67;;;1.83;;
65971;SDS011;52726;48.852;9.152;2023-04-15T08:45:54;4.55;;;2.03;;
65971;SDS011;52726;48.852;9.152;2023-04-15T08:48:20;4.82;;;2.17;;
65971;SDS011;52726;48.852;9.152;2023-04-15T08:50:46;9.65;;;2.45;;
65971;SDS011;52726;48.852;9.152;2023-04-15T08:53:12;3.13;;;2.67;;
65971;SDS011;52726;48.852;9.152;2023-04-15T08:55:41;3.15;;;1.88;;
65971;SDS011;52726;48.852;9.152;2023-04-15T08:58:11;5.45;;;2.40;;
65971;SDS011;52726;48.852;9.152;2023-04-15T09:00:38;7.65;;;2.10;;
65971;SDS011;52726;48.852;9.152;2023-04-15T09:03:04;7.20;;;2.00;;
65971;SDS011;52726;48.852;9.152;2023-04-15T09:05:36;4.60;;;2.33;;
65971;SDS011;52726;48.852;9.152;2023-04-15T09:08:02;3.78;;;2.10;;
65971;SDS011;52726;48.852;9.152;2023-04-15T09:10:29;6.15;;;2.47;;
65971;SDS011;52726;48.852;9.152;2023-04-15T09:12:55;5.03;;;2.38;;
65971;SDS011;52726;48.852;9.152;2023-04-15T09:15:22;3.95;;;2.05;;
65971;SDS011;52726;48.852;9.152;2023-04-15T09:17:49;2.67;;;1.80;;
65971;SDS011;52726;48.852;9.152;2023-04-15T09:20:15;4.20;;;1.80;;
65971;SDS011;52726;48.852;9.152;2023-04-15T09:22:45;3.65;;;2.15;;
65971;SDS011;52726;48.852;9.152;2023-04-15T09:27:52;1.92;;;1.73;;
65971;SDS011;52726;48.852;9.152;2023-04-15T09:30:20;4.25;;;1.95;;
65971;SDS011;52726;48.852;9.152;2023-04-15T09:35:19;4.10;;;1.95;;
65971;SDS011;52726;48.852;9.152;2023-04-15T09:37:45;5.10;;;1.88;;
65971;SDS011;52726;48.852;9.152;2023-04-15T09:40:11;3.83;;;2.00;;
65971;SDS011;52726;48.852;9.152;2023-04-15T09:42:42;4.18;;;1.55;;
65971;SDS011;52726;48.852;9.152;2023-04-15T09:45:18;2.65;;;1.90;;
65971;SDS011;52726;48.852;9.152;2023-04-15T09:47:44;2.33;;;1.80;;
65971;SDS011;52726;48.852;9.152;2023-04-15T09:50:10;6.63;;;2.10;;
65971;SDS011;52726;48.852;9.152;2023-04-15T09:52:40;4.38;;;1.98;;
65971;SDS011;52726;48.852;9.152;2023-04-15T09:55:07;3.35;;;1.60;;
65971;SDS011;52726;48.852;9.152;2023-04-15T09:57:33;2.08;;;1.88;;
65971;SDS011;52726;48.852;9.152;2023-04-15T10:00:00;2.60;;;2.00;;
65971;SDS011;52726;48.852;9.152;2023-04-15T10:02:25;3.08;;;2.03;;
65971;SDS011;52726;48.852;9.152;2023-04-15T10:04:51;5.47;;;2.20;;
65971;SDS011;52726;48.852;9.152;2023-04-15T10:07:17;7.35;;;2.65;;
65971;SDS011;52726;48.852;9.152;2023-04-15T10:09:47;3.55;;;2.25;;
65971;SDS011;52726;48.852;9.152;2023-04-15T10:12:13;3.75;;;2.55;;
65971;SDS011;52726;48.852;9.152;2023-04-15T10:14:41;6.00;;;2.53;;
65971;SDS011;52726;48.852;9.152;2023-04-15T10:17:08;5.15;;;2.28;;
65971;SDS011;52726;48.852;9.152;2023-04-15T10:19:36;6.85;;;2.83;;
65971;SDS011;52726;48.852;9.152;2023-04-15T10:22:02;5.53;;;2.20;;
65971;SDS011;52726;48.852;9.152;2023-04-15T10:24:31;2.58;;;1.85;;
65971;SDS011;52726;48.852;9.152;2023-04-15T10:26:57;2.38;;;1.70;;
65971;SDS011;52726;48.852;9.152;2023-04-15T10:29:24;5.10;;;1.63;;
65971;SDS011;52726;48.852;9.152;2023-04-15T10:31:55;6.68;;;2.13;;
65971;SDS011;52726;48.852;9.152;2023-04-15T10:34:22;6.07;;;2.17;;
65971;SDS011;52726;48.852;9.152;2023-04-15T10:36:48;3.38;;;1.80;;
65971;SDS011;52726;48.852;9.152;2023-04-15T10:42:05;7.22;;;2.25;;
65971;SDS011;52726;48.852;9.152;2023-04-15T10:44:37;4.07;;;2.22;;
65971;SDS011;52726;48.852;9.152;2023-04-15T10:47:10;3.30;;;1.90;;
65971;SDS011;52726;48.852;9.152;2023-04-15T10:49:44;3.42;;;2.25;;
65971;SDS011;52726;48.852;9.152;2023-04-15T10:52:14;4.22;;;2.17;;
65971;SDS011;52726;48.852;9.152;2023-04-15T10:54:41;5.22;;;2.45;;
65971;SDS011;52726;48.852;9.152;2023-04-15T10:57:08;4.20;;;2.45;;
65971;SDS011;52726;48.852;9.152;2023-04-15T11:00:01;4.72;;;2.63;;
65971;SDS011;52726;48.852;9.152;2023-04-15T11:05:16;3.13;;;1.85;;
65971;SDS011;52726;48.852;9.152;2023-04-15T11:12:42;2.22;;;1.50;;
65971;SDS011;52726;48.852;9.152;2023-04-15T11:18:10;2.58;;;1.95;;
65971;SDS011;52726;48.852;9.152;2023-04-15T11:20:37;4.25;;;1.90;;
65971;SDS011;52726;48.852;9.152;2023-04-15T11:23:03;2.85;;;2.00;;
65971;SDS011;52726;48.852;9.152;2023-04-15T11:25:30;4.10;;;1.90;;
65971;SDS011;52726;48.852;9.152;2023-04-15T11:27:57;2.85;;;1.63;;
65971;SDS011;52726;48.852;9.152;2023-04-15T11:30:24;6.30;;;2.08;;
65971;SDS011;52726;48.852;9.152;2023-04-15T11:32:53;7.00;;;2.25;;
65971;SDS011;52726;48.852;9.152;2023-04-15T11:35:19;2.72;;;1.95;;
65971;SDS011;52726;48.852;9.152;2023-04-15T11:37:46;5.35;;;2.72;;
65971;SDS011;52726;48.852;9.152;2023-04-15T11:40:13;4.20;;;2.30;;
65971;SDS011;52726;48.852;9.152;2023-04-15T11:42:41;4.35;;;2.95;;
65971;SDS011;52726;48.852;9.152;2023-04-15T11:47:36;5.95;;;2.33;;
65971;SDS011;52726;48.852;9.152;2023-04-15T11:50:18;4.38;;;2.75;;
65971;SDS011;52726;48.852;9.152;2023-04-15T11:52:51;4.22;;;2.67;;
65971;SDS011;52726;48.852;9.152;2023-04-15T11:55:17;5.25;;;2.20;;
65971;SDS011;52726;48.852;9.152;2023-04-15T11:57:42;5.85;;;2.20;;
65971;SDS011;52726;48.852;9.152;2023-04-15T12:00:08;2.45;;;2.00;;
65971;SDS011;52726;48.852;9.152;2023-04-15T12:02:35;5.15;;;2.28;;
65971;SDS011;52726;48.852;9.152;2023-04-15T12:05:04;7.50;;;2.22;;
65971;SDS011;52726;48.852;9.152;2023-04-15T12:07:30;2.85;;;1.85;;
65971;SDS011;52726;48.852;9.152;2023-04-15T12:09:56;3.88;;;1.92;;
65971;SDS011;52726;48.852;9.152;2023-04-15T12:12:26;5.18;;;2.28;;
65971;SDS011;52726;48.852;9.152;2023-04-15T12:14:52;4.57;;;2.20;;
65971;SDS011;52726;48.852;9.152;2023-04-15T12:17:20;3.25;;;1.50;;
65971;SDS011;52726;48.852;9.152;2023-04-15T12:19:47;1.35;;;0.95;;
65971;SDS011;52726;48.852;9.152;2023-04-15T12:22:14;2.45;;;1.48;;
65971;SDS011;52726;48.852;9.152;2023-04-15T12:24:41;4.10;;;1.98;;
65971;SDS011;52726;48.852;9.152;2023-04-15T12:27:11;2.17;;;1.98;;
65971;SDS011;52726;48.852;9.152;2023-04-15T12:29:40;1.83;;;1.67;;
65971;SDS011;52726;48.852;9.152;2023-04-15T12:32:08;2.08;;;1.95;;
65971;SDS011;52726;48.852;9.152;2023-04-15T12:34:38;3.40;;;2.42;;
65971;SDS011;52726;48.852;9.152;2023-04-15T12:37:06;5.57;;;3.00;;
65971;SDS011;52726;48.852;9.152;2023-04-15T12:39:36;5.38;;;2.55;;
65971;SDS011;52726;48.852;9.152;2023-04-15T12:42:04;4.13;;;2.03;;
65971;SDS011;52726;48.852;9.152;2023-04-15T12:44:30;3.65;;;2.13;;
65971;SDS011;52726;48.852;9.152;2023-04-15T12:46:57;6.47;;;2.50;;
65971;SDS011;52726;48.852;9.152;2023-04-15T12:49:23;5.18;;;2.33;;
65971;SDS011;52726;48.852;9.152;2023-04-15T12:51:50;2.97;;;2.00;;
65971;SDS011;52726;48.852;9.152;2023-04-15T12:54:19;2.33;;;1.95;;
65971;SDS011;52726;48.852;9.152;2023-04-15T12:56:46;4.05;;;1.77;;
65971;SDS011;52726;48.852;9.152;2023-04-15T12:59:13;2.80;;;1.95;;
65971;SDS011;52726;48.852;9.152;2023-04-15T13:01:40;1.70;;;1.50;;
65971;SDS011;52726;48.852;9.152;2023-04-15T13:04:05;4.38;;;1.60;;
65971;SDS011;52726;48.852;9.152;2023-04-15T13:06:31;1.83;;;1.50;;
65971;SDS011;52726;48.852;9.152;2023-04-15T13:08:59;2.13;;;1.70;;
65971;SDS011;52726;48.852;9.152;2023-04-15T13:11:25;2.03;;;1.67;;
65971;SDS011;52726;48.852;9.152;2023-04-15T13:13:53;1.92;;;1.30;;
65971;SDS011;52726;48.852;9.152;2023-04-15T13:16:19;2.58;;;1.40;;
65971;SDS011;52726;48.852;9.152;2023-04-15T13:18:45;2.28;;;1.45;;
65971;SDS011;52726;48.852;9.152;2023-04-15T13:21:12;2.30;;;1.67;;
65971;SDS011;52726;48.852;9.152;2023-04-15T13:23:37;1.55;;;1.38;;
65971;SDS011;52726;48.852;9.152;2023-04-15T13:26:02;2.70;;;1.30;;
65971;SDS011;52726;48.852;9.152;2023-04-15T13:28:28;1.55;;;1.10;;
65971;SDS011;52726;48.852;9.152;2023-04-15T13:30:53;4.13;;;1.50;;
65971;SDS011;52726;48.852;9.152;2023-04-15T13:33:19;2.05;;;1.40;;
65971;SDS011;52726;48.852;9.152;2023-04-15T13:35:44;1.80;;;1.10;;
65971;SDS011;52726;48.852;9.152;2023-04-15T13:38:10;3.47;;;1.10;;
65971;SDS011;52726;48.852;9.152;2023-04-15T13:40:35;1.40;;;0.95;;
65971;SDS011;52726;48.852;9.152;2023-04-15T13:43:01;2.15;;;0.98;;
65971;SDS011;52726;48.852;9.152;2023-04-15T13:45:27;0.98;;;0.90;;
65971;SDS011;52726;48.852;9.152;2023-04-15T13:47:52;5.15;;;1.27;;
65971;SDS011;52726;48.852;9.152;2023-04-15T13:50:20;0.90;;;0.90;;
65971;SDS011;52726;48.852;9.152;2023-04-15T13:52:45;0.63;;;0.63;;
65971;SDS011;52726;48.852;9.152;2023-04-15T13:55:11;2.25;;;1.00;;
65971;SDS011;52726;48.852;9.152;2023-04-15T13:57:36;3.10;;;1.20;;
65971;SDS011;52726;48.852;9.152;2023-04-15T14:00:02;0.93;;;0.90;;
65971;SDS011;52726;48.852;9.152;2023-04-15T14:02:28;1.25;;;0.93;;
65971;SDS011;52726;48.852;9.152;2023-04-15T14:04:54;3.55;;;1.45;;
65971;SDS011;52726;48.852;9.152;2023-04-15T14:07:20;0.93;;;0.90;;
65971;SDS011;52726;48.852;9.152;2023-04-15T14:09:45;3.72;;;1.02;;
65971;SDS011;52726;48.852;9.152;2023-04-15T14:12:12;3.08;;;1.08;;
65971;SDS011;52726;48.852;9.152;2023-04-15T14:14:37;0.60;;;0.60;;
65971;SDS011;52726;48.852;9.152;2023-04-15T14:19:50;0.77;;;0.77;;
65971;SDS011;52726;48.852;9.152;2023-04-15T14:22:15;2.35;;;0.93;;
65971;SDS011;52726;48.852;9.152;2023-04-15T14:24:42;1.15;;;0.80;;
65971;SDS011;52726;48.852;9.152;2023-04-15T14:30:10;5.13;;;1.10;;
65971;SDS011;52726;48.852;9.152;2023-04-15T14:32:35;0.43;;;0.43;;
65971;SDS011;52726;48.852;9.152;2023-04-15T14:35:01;3.50;;;0.80;;
65971;SDS011;52726;48.852;9.152;2023-04-15T14:37:28;0.80;;;0.80;;
65971;SDS011;52726;48.852;9.152;2023-04-15T14:39:53;1.23;;;1.00;;
65971;SDS011;52726;48.852;9.152;2023-04-15T14:42:19;1.38;;;0.75;;
65971;SDS011;52726;48.852;9.152;2023-04-15T14:44:44;0.50;;;0.50;;
65971;SDS011;52726;48.852;9.152;2023-04-15T14:47:09;7.13;;;1.60;;
65971;SDS011;52726;48.852;9.152;2023-04-15T14:49:35;1.48;;;1.33;;
65971;SDS011;52726;48.852;9.152;2023-04-15T14:52:03;0.88;;;0.88;;
65971;SDS011;52726;48.852;9.152;2023-04-15T14:54:29;1.08;;;1.08;;
65971;SDS011;52726;48.852;9.152;2023-04-15T14:56:54;2.40;;;1.30;;
65971;SDS011;52726;48.852;9.152;2023-04-15T14:59:20;0.70;;;0.70;;
65971;SDS011;52726;48.852;9.152;2023-04-15T15:01:45;1.00;;;1.00;;
65971;SDS011;52726;48.852;9.152;2023-04-15T15:04:11;0.65;;;0.65;;
65971;SDS011;52726;48.852;9.152;2023-04-15T15:06:37;1.17;;;0.77;;
65971;SDS011;52726;48.852;9.152;2023-04-15T15:09:02;5.05;;;1.33;;
65971;SDS011;52726;48.852;9.152;2023-04-15T15:11:28;0.70;;;0.70;;
65971;SDS011;52726;48.852;9.152;2023-04-15T15:13:53;1.40;;;1.17;;
65971;SDS011;52726;48.852;9.152;2023-04-15T15:16:19;3.30;;;1.00;;
65971;SDS011;52726;48.852;9.152;2023-04-15T15:18:45;1.42;;;1.08;;
65971;SDS011;52726;48.852;9.152;2023-04-15T15:21:11;1.65;;;0.98;;